Time;durP1;ratioP1;P1;durP2;ratioP2;P2;SDS_P1;SDS_P2;PMS_P1;PMS_P2;Temp;Humidity;BMP_temperature;BMP_pressure;BME280_temperature;BME280_humidity;BME280_pressure;Samples;Min_cycle;Max_cycle;Signal;HPM_P1;HPM_P2
2023/12/05 00:00:51;;;;;;;2.60;2.40;;;15.10;55.60;16.10;99148.00;;;;5049889;28;20187;-44
2023/12/05 00:03:17;;;;;;;2.60;2.40;;;15.00;55.50;16.00;99149.00;;;;5049638;28;20182;-43
2023/12/05 00:05:42;;;;;;;2.60;2.40;;;15.10;55.70;16.10;99144.00;;;;5048502;28;20203;-43
2023/12/05 00:08:09;;;;;;;2.50;2.30;;;15.00;55.60;16.00;99139.00;;;;5049815;28;20600;-44
2023/12/05 00:10:35;;;;;;;2.70;2.50;;;14.90;55.70;16.00;99134.00;;;;5049547;28;20261;-43
2023/12/05 00:13:00;;;;;;;2.70;2.50;;;14.90;55.70;16.00;99131.00;;;;5049432;28;20209;-45
2023/12/05 00:15:26;;;;;;;2.40;2.20;;;15.00;55.70;16.00;99138.00;;;;5049739;28;20194;-43
2023/12/05 00:17:52;;;;;;;2.77;2.57;;;14.90;55.60;15.90;99125.00;;;;5049798;28;20227;-44
2023/12/05 00:20:18;;;;;;;2.67;2.47;;;14.90;55.70;15.90;99120.00;;;;5049685;28;21012;-44
2023/12/05 00:22:44;;;;;;;2.67;2.47;;;14.80;55.60;15.90;99122.00;;;;5049479;28;20185;-44
2023/12/05 00:25:10;;;;;;;2.60;2.40;;;14.90;55.60;15.90;99113.00;;;;5049515;28;20209;-44
2023/12/05 00:27:35;;;;;;;2.50;2.30;;;14.90;55.70;15.90;99110.00;;;;5049616;28;20179;-46
2023/12/05 00:30:03;;;;;;;2.50;2.30;;;14.80;55.60;15.90;99111.00;;;;5049500;28;20174;-44
2023/12/05 00:32:28;;;;;;;2.63;2.43;;;14.80;55.60;15.90;99111.00;;;;5046669;28;20576;-44
2023/12/05 00:34:54;;;;;;;2.70;2.50;;;14.80;55.60;15.80;99109.00;;;;5048657;28;20214;-44
2023/12/05 00:37:20;;;;;;;2.70;2.50;;;14.80;55.60;15.80;99122.00;;;;5044283;28;20182;-44
2023/12/05 00:39:46;;;;;;;2.50;2.30;;;14.80;55.70;15.80;99132.00;;;;5049447;28;20182;-44
2023/12/05 00:42:11;;;;;;;2.60;2.40;;;14.80;55.70;15.80;99113.00;;;;5049153;28;20660;-44
2023/12/05 00:44:37;;;;;;;2.47;2.30;;;14.70;55.70;15.80;99115.00;;;;5049110;28;20202;-43
2023/12/05 00:47:05;;;;;;;2.90;2.70;;;14.70;55.70;15.70;99114.00;;;;5049253;28;20182;-43
2023/12/05 00:49:34;;;;;;;2.67;2.47;;;14.70;55.70;15.70;99099.00;;;;5049311;28;20178;-44
2023/12/05 00:52:00;;;;;;;2.60;2.40;;;14.70;55.70;15.70;99107.00;;;;5049419;28;20206;-45
2023/12/05 00:54:25;;;;;;;2.60;2.40;;;14.70;55.70;15.70;99103.00;;;;5047917;28;20202;-44
2023/12/05 00:56:51;;;;;;;2.70;2.50;;;14.70;55.70;15.70;99103.00;;;;5047960;28;20185;-43
2023/12/05 00:59:17;;;;;;;2.63;2.43;;;14.70;55.80;15.60;99096.00;;;;5049014;28;20178;-44
2023/12/05 01:01:43;;;;;;;2.60;2.40;;;14.60;55.80;15.60;99116.00;;;;5046543;28;20186;-44
2023/12/05 01:04:08;;;;;;;2.50;2.30;;;14.60;55.80;15.60;99111.00;;;;5043660;28;20699;-43
2023/12/05 01:06:34;;;;;;;2.67;2.47;;;14.60;55.80;15.60;99102.00;;;;5047729;28;20637;-45
2023/12/05 01:09:00;;;;;;;2.63;2.43;;;14.50;55.70;15.60;99104.00;;;;5047609;28;20178;-45
2023/12/05 01:11:25;;;;;;;2.67;2.47;;;14.60;55.80;15.60;99096.00;;;;5047717;28;20178;-45
2023/12/05 01:13:51;;;;;;;2.70;2.50;;;14.60;55.70;15.50;99108.00;;;;5047236;28;20201;-43
2023/12/05 01:16:17;;;;;;;2.77;2.57;;;14.50;55.70;15.50;99100.00;;;;5046327;28;20174;-43
2023/12/05 01:18:43;;;;;;;2.63;2.43;;;14.50;55.70;15.50;99111.00;;;;5047721;28;20170;-44
2023/12/05 01:21:09;;;;;;;2.50;2.30;;;14.50;55.80;15.50;99101.00;;;;5047627;28;20189;-44
2023/12/05 01:23:34;;;;;;;2.70;2.50;;;14.50;55.80;15.50;99105.00;;;;5048242;28;20616;-45
2023/12/05 01:26:00;;;;;;;2.60;2.40;;;14.40;55.70;15.50;99103.00;;;;5052005;28;20647;-45
2023/12/05 01:28:26;;;;;;;2.60;2.40;;;14.40;55.80;15.40;99099.00;;;;5052239;28;20730;-44
2023/12/05 01:30:52;;;;;;;2.53;2.33;;;14.40;55.80;15.40;99097.00;;;;5051988;28;20193;-43
2023/12/05 01:33:17;;;;;;;2.70;2.50;;;14.40;55.80;15.40;99097.00;;;;5051474;28;20210;-43
2023/12/05 01:35:43;;;;;;;2.77;2.50;;;14.40;55.90;15.40;99098.00;;;;5051672;28;20225;-43
2023/12/05 01:38:09;;;;;;;2.60;2.40;;;14.40;55.80;15.40;99100.00;;;;5051559;28;20507;-43
2023/12/05 01:40:34;;;;;;;2.47;2.27;;;14.40;56.00;15.40;99096.00;;;;5051748;28;20178;-43
2023/12/05 01:43:00;;;;;;;2.47;2.27;;;14.30;55.90;15.40;99086.00;;;;5051115;28;20212;-42
2023/12/05 01:45:26;;;;;;;2.77;2.57;;;14.30;56.00;15.30;99095.00;;;;5051298;28;20550;-44
2023/12/05 01:47:51;;;;;;;2.57;2.37;;;14.30;56.00;15.30;99094.00;;;;5051622;28;20178;-44
2023/12/05 01:50:22;;;;;;;2.67;2.47;;;14.30;55.90;15.30;99080.00;;;;5049960;28;20261;-44
2023/12/05 01:52:52;;;;;;;2.50;2.30;;;14.30;56.00;15.30;99093.00;;;;5049737;28;20644;-44
2023/12/05 01:55:17;;;;;;;2.53;2.33;;;14.30;56.00;15.30;99085.00;;;;5049882;28;20672;-44
2023/12/05 01:57:43;;;;;;;2.60;2.40;;;14.30;56.00;15.30;99081.00;;;;5049941;28;20226;-44
2023/12/05 02:00:10;;;;;;;2.37;2.20;;;14.20;56.00;15.30;99085.00;;;;5033562;28;20213;-43
2023/12/05 02:02:35;;;;;;;2.50;2.30;;;14.30;56.20;15.20;99088.00;;;;5045946;28;20191;-45
2023/12/05 02:05:03;;;;;;;2.53;2.33;;;14.20;56.10;15.20;99088.00;;;;5049633;28;20233;-44
2023/12/05 02:07:29;;;;;;;2.63;2.43;;;14.20;56.20;15.20;99087.00;;;;5049925;28;20243;-43
2023/12/05 02:09:55;;;;;;;2.67;2.47;;;14.20;56.20;15.20;99076.00;;;;5049869;28;20818;-44
2023/12/05 02:12:20;;;;;;;2.73;2.53;;;14.20;56.20;15.20;99078.00;;;;5050715;28;20289;-44
2023/12/05 02:14:46;;;;;;;2.60;2.40;;;14.20;56.20;15.20;99066.00;;;;5050719;28;20210;-43
2023/12/05 02:17:39;;;;;;;2.50;2.30;;;14.20;56.20;15.20;99070.00;;;;5033128;28;20178;-44
2023/12/05 02:20:14;;;;;;;2.50;2.30;;;14.20;56.20;15.10;99065.00;;;;5047755;28;20206;-43
2023/12/05 02:23:01;;;;;;;2.50;2.30;;;14.10;56.10;15.10;99082.00;;;;5030035;28;20739;-44
2023/12/05 02:25:55;;;;;;;2.63;2.43;;;14.10;56.10;15.10;99083.00;;;;5050908;28;20198;-44
2023/12/05 02:28:21;;;;;;;3.03;2.37;;;14.10;56.20;15.10;99067.00;;;;5044524;28;20209;-45
2023/12/05 02:30:47;;;;;;;2.63;2.43;;;14.10;56.20;15.10;99074.00;;;;5031626;28;20241;-43
2023/12/05 02:33:13;;;;;;;2.27;2.10;;;14.10;56.30;15.10;99071.00;;;;5050408;28;20205;-44
2023/12/05 02:35:39;;;;;;;2.20;2.10;;;14.00;56.20;15.00;99068.00;;;;5049439;28;20707;-44
2023/12/05 02:38:37;;;;;;;2.30;2.20;;;14.00;56.20;15.10;99070.00;;;;5032814;28;20174;-44
2023/12/05 02:41:12;;;;;;;2.43;2.23;;;14.00;56.20;15.00;99052.00;;;;5031004;28;20623;-44
2023/12/05 02:43:43;;;;;;;2.77;2.20;;;14.00;56.20;15.00;99059.00;;;;5050149;28;20223;-44
2023/12/05 02:46:10;;;;;;;2.50;2.30;;;14.00;56.30;15.00;99061.00;;;;5033002;28;20179;-43
2023/12/05 02:48:35;;;;;;;2.43;2.23;;;14.00;56.30;15.00;99037.00;;;;5029115;28;20806;-44
2023/12/05 02:51:01;;;;;;;2.47;2.27;;;14.00;56.90;14.90;99062.00;;;;5032429;28;20257;-43
2023/12/05 02:53:27;;;;;;;2.43;2.23;;;14.00;56.30;15.00;99063.00;;;;5050143;28;20206;-43
2023/12/05 02:55:52;;;;;;;2.20;2.00;;;13.90;56.20;14.90;99047.00;;;;5050348;28;20213;-44
2023/12/05 02:58:18;;;;;;;2.50;2.30;;;13.90;56.30;14.90;99054.00;;;;5049942;28;20613;-44
2023/12/05 03:00:44;;;;;;;2.40;2.20;;;13.90;56.30;14.90;99056.00;;;;5049902;28;20190;-44
2023/12/05 03:03:09;;;;;;;2.50;2.30;;;13.90;56.30;14.90;99054.00;;;;5049017;28;20182;-44
2023/12/05 03:05:35;;;;;;;2.03;1.93;;;13.90;56.40;14.90;99041.00;;;;5048560;28;20209;-44
2023/12/05 03:08:01;;;;;;;2.10;2.00;;;13.90;56.40;14.90;99059.00;;;;5047536;28;20251;-44
2023/12/05 03:10:27;;;;;;;2.40;1.93;;;13.90;56.50;14.90;99057.00;;;;5050162;28;20264;-44
2023/12/05 03:12:52;;;;;;;2.30;2.10;;;13.90;56.40;14.90;99051.00;;;;5049411;28;20261;-44
2023/12/05 03:15:18;;;;;;;2.37;2.20;;;13.90;56.40;14.80;99055.00;;;;5049711;28;20574;-44
2023/12/05 03:17:44;;;;;;;2.30;2.10;;;13.80;56.40;14.90;99051.00;;;;5049859;28;20181;-47
2023/12/05 03:20:10;;;;;;;2.20;2.10;;;13.80;56.50;14.80;99058.00;;;;5049572;28;20182;-44
2023/12/05 03:22:36;;;;;;;1.93;1.83;;;13.80;56.60;14.80;99047.00;;;;5048328;28;20671;-44
2023/12/05 03:25:02;;;;;;;2.20;2.10;;;13.80;56.50;14.80;99043.00;;;;5049744;28;20269;-44
2023/12/05 03:27:27;;;;;;;2.20;2.10;;;13.80;56.60;14.80;99036.00;;;;5049729;28;20201;-44
2023/12/05 03:29:53;;;;;;;2.47;2.27;;;13.80;56.60;14.80;99035.00;;;;5049740;28;20193;-45
2023/12/05 03:32:19;;;;;;;2.20;2.00;;;13.80;56.60;14.80;99042.00;;;;5046410;28;20178;-45
2023/12/05 03:34:47;;;;;;;2.30;2.20;;;13.80;56.80;14.80;99042.00;;;;5047221;28;20206;-44
2023/12/05 03:37:12;;;;;;;2.37;2.17;;;13.80;56.70;14.80;99043.00;;;;5049602;28;20193;-44
2023/12/05 03:39:38;;;;;;;2.10;2.00;;;13.80;56.80;14.80;99043.00;;;;5049624;28;20601;-44
2023/12/05 03:42:04;;;;;;;2.40;2.20;;;13.80;56.80;14.80;99033.00;;;;5049292;28;20170;-44
2023/12/05 03:44:30;;;;;;;2.07;1.97;;;13.70;56.70;14.70;99031.00;;;;5049435;28;20583;-44
2023/12/05 03:46:56;;;;;;;2.50;2.30;;;13.80;56.80;14.70;99033.00;;;;5048916;28;20257;-44
2023/12/05 03:49:21;;;;;;;2.00;1.90;;;13.70;56.70;14.70;99021.00;;;;5049409;28;20182;-44
2023/12/05 03:51:47;;;;;;;2.17;2.07;;;13.70;56.80;14.70;99041.00;;;;5049176;28;20189;-44
2023/12/05 03:54:13;;;;;;;2.10;2.00;;;13.70;56.80;14.70;99030.00;;;;5048731;28;20213;-44
2023/12/05 03:56:39;;;;;;;2.50;2.30;;;13.70;56.90;14.70;99027.00;;;;5048973;28;20186;-45
2023/12/05 03:59:04;;;;;;;2.13;2.00;;;13.70;56.90;14.70;99039.00;;;;5048947;28;20735;-45
2023/12/05 04:01:30;;;;;;;2.10;2.00;;;13.70;56.80;14.70;99041.00;;;;5049780;28;20190;-45
2023/12/05 04:03:56;;;;;;;2.20;2.00;;;13.70;56.80;14.70;99041.00;;;;5045631;28;20194;-45
2023/12/05 04:06:24;;;;;;;2.17;2.07;;;13.70;56.90;14.70;99047.00;;;;5049985;28;20186;-44
2023/12/05 04:08:50;;;;;;;2.30;2.20;;;13.60;56.70;14.70;99037.00;;;;5048710;28;20562;-44
2023/12/05 04:11:16;;;;;;;2.20;2.10;;;13.60;56.80;14.60;99043.00;;;;5049690;28;20194;-44
2023/12/05 04:13:42;;;;;;;2.23;2.10;;;13.70;56.90;14.60;99042.00;;;;5049597;28;20206;-44
2023/12/05 04:16:08;;;;;;;3.30;2.30;;;13.60;56.80;14.60;99056.00;;;;5031946;28;20197;-44
2023/12/05 04:18:34;;;;;;;2.10;1.90;;;13.60;57.80;14.60;99049.00;;;;5049993;28;20545;-44
2023/12/05 04:21:00;;;;;;;2.30;2.10;;;13.70;57.10;14.60;99055.00;;;;5049914;28;20213;-44
2023/12/05 04:23:26;;;;;;;2.60;2.30;;;13.60;57.20;14.60;99050.00;;;;5049725;28;20189;-44
2023/12/05 04:25:51;;;;;;;2.17;2.07;;;13.60;57.20;14.60;99035.00;;;;5049591;28;20206;-44
2023/12/05 04:28:17;;;;;;;2.30;2.10;;;13.60;57.10;14.60;99033.00;;;;5049537;28;20186;-44
2023/12/05 04:30:43;;;;;;;2.63;2.00;;;13.60;57.10;14.60;99048.00;;;;5049360;28;20186;-44
2023/12/05 04:33:08;;;;;;;3.20;2.20;;;13.60;57.10;14.60;99052.00;;;;5045287;28;20590;-44
2023/12/05 04:35:35;;;;;;;2.50;2.30;;;13.60;57.10;14.60;99049.00;;;;5049315;28;20677;-44
2023/12/05 04:38:01;;;;;;;2.30;2.20;;;13.60;57.10;14.60;99052.00;;;;5046641;28;20293;-44
2023/12/05 04:40:26;;;;;;;2.63;2.20;;;13.50;57.10;14.50;99048.00;;;;5049285;28;20175;-44
2023/12/05 04:42:52;;;;;;;2.40;2.20;;;13.50;57.10;14.50;99044.00;;;;5048963;28;20182;-43
2023/12/05 04:45:18;;;;;;;2.63;2.00;;;13.50;57.20;14.50;99038.00;;;;5049077;28;20198;-43
2023/12/05 04:47:45;;;;;;;2.07;1.97;;;13.50;57.20;14.50;99053.00;;;;5049291;28;20185;-44
2023/12/05 04:50:11;;;;;;;1.90;1.80;;;13.50;57.20;14.50;99052.00;;;;5049208;28;20698;-44
2023/12/05 04:52:36;;;;;;;2.30;2.10;;;13.40;57.20;14.50;99047.00;;;;5049029;28;20174;-43
2023/12/05 04:55:02;;;;;;;2.67;2.00;;;13.50;57.40;14.50;99061.00;;;;5048756;28;20216;-44
2023/12/05 04:57:28;;;;;;;1.90;1.80;;;13.40;57.30;14.40;99036.00;;;;5049130;28;20174;-44
2023/12/05 04:59:54;;;;;;;1.97;1.87;;;13.40;57.20;14.40;99059.00;;;;5043822;28;20186;-44
2023/12/05 05:02:19;;;;;;;2.37;2.17;;;13.40;57.20;14.40;99059.00;;;;5045113;28;20198;-44
2023/12/05 05:04:45;;;;;;;2.93;1.90;;;13.40;57.30;14.40;99060.00;;;;5048630;28;20580;-44
2023/12/05 05:07:11;;;;;;;2.10;1.80;;;13.40;57.30;14.40;99069.00;;;;5048695;28;20181;-43
2023/12/05 05:09:39;;;;;;;3.13;2.13;;;13.40;57.40;14.40;99076.00;;;;5048499;28;20226;-43
2023/12/05 05:12:08;;;;;;;2.80;2.03;;;13.40;57.50;14.40;99065.00;;;;5048321;28;20178;-43
2023/12/05 05:14:36;;;;;;;2.50;2.30;;;13.40;57.50;14.40;99069.00;;;;5047091;28;20244;-43
2023/12/05 05:17:07;;;;;;;2.10;2.00;;;13.40;57.70;14.40;99087.00;;;;5046226;28;20660;-44
2023/12/05 05:19:32;;;;;;;2.67;1.90;;;13.40;57.70;14.40;99086.00;;;;5048883;28;20182;-43
2023/12/05 05:21:58;;;;;;;2.40;2.20;;;13.40;57.70;14.30;99083.00;;;;5048278;28;20188;-43
2023/12/05 05:24:24;;;;;;;2.23;1.97;;;13.30;57.90;14.30;99075.00;;;;5048378;28;20202;-43
2023/12/05 05:26:50;;;;;;;2.57;2.20;;;13.30;57.80;14.30;99081.00;;;;5048904;28;20182;-43
2023/12/05 05:29:15;;;;;;;2.10;1.90;;;13.30;57.90;14.40;99082.00;;;;5054280;28;20722;-43
2023/12/05 05:31:41;;;;;;;2.00;1.90;;;13.30;57.80;14.40;99070.00;;;;5048078;28;20186;-43
2023/12/05 05:34:07;;;;;;;2.43;1.90;;;13.40;57.80;14.40;99093.00;;;;5047604;28;20206;-43
2023/12/05 05:36:32;;;;;;;4.03;2.00;;;13.40;58.50;14.30;99077.00;;;;5048049;28;20186;-44
2023/12/05 05:38:58;;;;;;;1.87;1.77;;;13.30;57.80;14.40;99091.00;;;;5046985;28;20170;-44
2023/12/05 05:41:24;;;;;;;3.73;1.97;;;13.40;57.80;14.40;99078.00;;;;5047883;28;20174;-44
2023/12/05 05:43:49;;;;;;;2.60;2.00;;;13.40;57.80;14.40;99083.00;;;;5048002;28;20182;-44
2023/12/05 05:46:15;;;;;;;4.47;1.67;;;13.40;57.80;14.40;99073.00;;;;5048173;28;20718;-44
2023/12/05 05:48:41;;;;;;;2.87;1.70;;;13.40;57.80;14.40;99091.00;;;;5047416;28;20263;-43
2023/12/05 05:51:07;;;;;;;1.87;1.70;;;13.40;57.80;14.30;99090.00;;;;5047590;28;20178;-43
2023/12/05 05:53:33;;;;;;;4.20;1.70;;;13.30;57.80;14.40;99094.00;;;;5047792;28;20565;-44
2023/12/05 05:56:00;;;;;;;2.57;1.80;;;13.40;58.00;14.30;99088.00;;;;5048115;28;20195;-44
2023/12/05 05:58:25;;;;;;;2.27;1.70;;;13.40;57.90;14.40;99093.00;;;;5048458;28;20170;-43
2023/12/05 06:00:51;;;;;;;2.80;1.80;;;13.40;57.90;14.10;99091.00;;;;5047806;28;20208;-43
2023/12/05 06:03:17;;;;;;;2.73;1.70;;;13.40;58.60;14.30;99097.00;;;;5044123;28;20678;-44
2023/12/05 06:05:43;;;;;;;1.73;1.63;;;13.40;58.10;14.30;99097.00;;;;5045410;28;20202;-44
2023/12/05 06:08:08;;;;;;;2.07;1.70;;;13.40;58.20;14.40;99094.00;;;;5048245;28;20206;-44
2023/12/05 06:10:37;;;;;;;1.93;1.83;;;13.40;58.30;14.40;99096.00;;;;5050160;28;20604;-44
2023/12/05 06:13:03;;;;;;;2.23;1.60;;;13.50;58.40;14.40;99101.00;;;;5049319;28;20170;-44
2023/12/05 06:15:28;;;;;;;1.60;1.50;;;13.60;58.30;14.50;99092.00;;;;5051545;28;20702;-44
2023/12/05 06:17:56;;;;;;;1.70;1.60;;;13.70;58.10;14.60;99097.00;;;;5051949;28;20186;-44
2023/12/05 06:20:22;;;;;;;2.17;1.63;;;13.80;58.00;14.60;99094.00;;;;5051641;28;20645;-44
2023/12/05 06:22:47;;;;;;;1.80;1.70;;;13.90;58.00;14.70;99098.00;;;;5051624;28;20630;-45
2023/12/05 06:25:13;;;;;;;1.53;1.43;;;14.10;58.50;14.80;99104.00;;;;5051426;28;20275;-44
2023/12/05 06:27:39;;;;;;;1.70;1.60;;;14.20;57.80;14.90;99097.00;;;;5051679;28;20194;-44
2023/12/05 06:30:06;;;;;;;1.83;1.67;;;14.30;57.60;15.00;99102.00;;;;5051424;28;20656;-44
2023/12/05 06:32:32;;;;;;;1.30;1.30;;;14.40;57.50;15.10;99101.00;;;;5048285;28;20641;-45
2023/12/05 06:34:57;;;;;;;1.50;1.40;;;14.60;57.40;15.20;99103.00;;;;5049494;28;20210;-45
2023/12/05 06:37:23;;;;;;;1.60;1.50;;;14.80;57.40;15.30;99108.00;;;;5051459;28;20178;-45
2023/12/05 06:39:49;;;;;;;1.70;1.60;;;14.90;57.10;15.40;99106.00;;;;5051262;28;20178;-45
2023/12/05 06:42:15;;;;;;;1.53;1.43;;;15.10;57.00;15.50;99108.00;;;;5050851;28;20175;-45
2023/12/05 06:44:41;;;;;;;1.63;1.53;;;15.20;57.00;15.70;99119.00;;;;5049654;28;20605;-45
2023/12/05 06:47:07;;;;;;;1.47;1.37;;;15.30;56.80;15.80;99116.00;;;;5051163;28;20180;-45
2023/12/05 06:49:33;;;;;;;1.40;1.40;;;15.40;56.80;15.90;99111.00;;;;5049768;28;20177;-44
2023/12/05 06:52:00;;;;;;;1.40;1.30;;;15.60;56.70;16.00;99114.00;;;;5050601;28;20189;-44
2023/12/05 06:54:26;;;;;;;1.47;1.37;;;15.70;56.80;16.10;99121.00;;;;5049302;28;20209;-44
2023/12/05 06:56:52;;;;;;;1.40;1.30;;;15.70;56.80;16.20;99120.00;;;;5050980;28;20182;-44
2023/12/05 06:59:17;;;;;;;1.37;1.20;;;15.80;56.80;16.30;99125.00;;;;5050758;28;20178;-44
2023/12/05 07:01:43;;;;;;;1.10;1.10;;;15.80;56.80;16.30;99122.00;;;;5050425;28;20187;-45
2023/12/05 07:04:09;;;;;;;1.17;1.07;;;15.80;57.00;16.40;99120.00;;;;5041361;28;20211;-45
2023/12/05 07:06:35;;;;;;;1.40;1.30;;;15.90;56.90;16.40;99129.00;;;;5050910;28;20205;-44
2023/12/05 07:09:00;;;;;;;1.23;1.13;;;16.00;57.00;16.50;99130.00;;;;5050849;28;20176;-44
2023/12/05 07:11:26;;;;;;;1.40;1.30;;;16.00;57.00;16.60;99141.00;;;;5042975;28;20550;-44
2023/12/05 07:13:53;;;;;;;1.30;1.30;;;16.00;57.00;16.60;99143.00;;;;5048938;28;20214;-45
2023/12/05 07:16:19;;;;;;;1.33;1.23;;;16.00;57.10;16.70;99142.00;;;;5050949;28;20542;-44
2023/12/05 07:18:45;;;;;;;1.37;1.27;;;16.10;57.30;16.70;99145.00;;;;5050635;28;20194;-44
2023/12/05 07:21:11;;;;;;;1.50;1.40;;;16.10;57.30;16.70;99144.00;;;;5049494;28;20246;-44
2023/12/05 07:23:37;;;;;;;1.30;1.30;;;16.10;57.30;16.60;99161.00;;;;5050223;28;20184;-45
2023/12/05 07:26:03;;;;;;;1.20;1.10;;;16.10;57.20;16.80;99169.00;;;;5047991;28;20199;-45
2023/12/05 07:28:29;;;;;;;1.03;1.03;;;16.10;57.30;16.80;99157.00;;;;5050395;28;20227;-44
2023/12/05 07:30:55;;;;;;;1.03;1.03;;;16.20;57.40;16.80;99161.00;;;;5049861;28;20191;-44
2023/12/05 07:33:21;;;;;;;1.40;1.30;;;16.20;57.40;16.90;99172.00;;;;5045743;28;20521;-44
2023/12/05 07:35:46;;;;;;;1.33;1.20;;;16.20;57.60;16.90;99165.00;;;;5050046;28;20203;-45
2023/12/05 07:38:12;;;;;;;1.40;1.30;;;16.20;57.50;16.90;99172.00;;;;5050175;28;20196;-44
2023/12/05 07:40:38;;;;;;;1.10;1.10;;;16.20;57.50;16.90;99180.00;;;;5049780;28;20186;-43
2023/12/05 07:43:04;;;;;;;1.40;1.30;;;16.20;57.60;16.90;99182.00;;;;5049516;28;20213;-45
2023/12/05 07:45:30;;;;;;;1.30;1.30;;;16.20;57.60;17.00;99185.00;;;;5049847;28;20210;-46
2023/12/05 07:47:56;;;;;;;1.20;1.10;;;16.20;57.70;17.00;99192.00;;;;5050230;28;20216;-43
2023/12/05 07:50:22;;;;;;;1.47;1.37;;;16.30;57.70;17.00;99190.00;;;;5049842;28;20174;-44
2023/12/05 07:52:51;;;;;;;0.97;0.97;;;16.20;57.60;17.00;99203.00;;;;5048669;28;20191;-44
2023/12/05 07:55:20;;;;;;;1.17;1.07;;;16.30;57.70;17.00;99196.00;;;;5049224;28;20209;-43
2023/12/05 07:57:47;;;;;;;1.10;1.10;;;16.30;57.60;17.00;99212.00;;;;5049657;28;20181;-43
2023/12/05 08:00:17;;;;;;;0.87;0.87;;;16.30;57.70;17.10;99206.00;;;;5048348;28;20171;-46
2023/12/05 08:02:45;;;;;;;1.00;1.00;;;16.30;57.80;17.10;99207.00;;;;5044094;28;20667;-44
2023/12/05 08:05:11;;;;;;;1.20;1.10;;;16.30;57.80;17.10;99207.00;;;;5041000;28;20205;-44
2023/12/05 08:07:38;;;;;;;1.30;1.30;;;16.30;57.90;17.10;99213.00;;;;5043866;28;20238;-45
2023/12/05 08:10:07;;;;;;;1.00;1.00;;;16.20;57.80;17.10;99204.00;;;;5046104;28;20186;-45
2023/12/05 08:12:33;;;;;;;1.00;1.00;;;16.20;57.90;17.10;99215.00;;;;5049069;28;20364;-43
2023/12/05 08:14:59;;;;;;;1.10;1.10;;;16.30;57.90;17.10;99218.00;;;;5048977;28;20266;-43
2023/12/05 08:17:25;;;;;;;1.03;1.03;;;16.30;57.90;17.10;99219.00;;;;5049818;28;20168;-44
2023/12/05 08:19:51;;;;;;;1.13;1.13;;;16.30;57.90;17.10;99215.00;;;;5048654;28;20731;-43
2023/12/05 08:22:17;;;;;;;1.10;1.10;;;16.30;57.90;17.10;99224.00;;;;5049195;28;20188;-44
2023/12/05 08:24:42;;;;;;;1.33;1.23;;;16.40;58.00;17.10;99215.00;;;;5049097;28;20848;-44
2023/12/05 08:27:08;;;;;;;0.87;0.87;;;16.30;57.90;17.20;99222.00;;;;5049105;28;20184;-44
2023/12/05 08:29:34;;;;;;;0.90;0.90;;;16.40;58.00;17.20;99223.00;;;;5049417;28;20179;-43
2023/12/05 08:31:59;;;;;;;1.03;1.03;;;16.40;58.10;17.20;99230.00;;;;5049052;28;20599;-43
2023/12/05 08:34:25;;;;;;;0.87;0.87;;;16.40;58.00;17.20;99227.00;;;;5043783;28;20207;-42
2023/12/05 08:36:51;;;;;;;1.17;1.17;;;16.40;58.00;17.20;99237.00;;;;5047021;28;20178;-43
2023/12/05 08:39:17;;;;;;;1.57;1.47;;;16.40;58.00;17.20;99229.00;;;;5047731;28;20203;-43
2023/12/05 08:41:42;;;;;;;1.30;1.30;;;16.40;58.00;17.20;99241.00;;;;5048670;28;20258;-43
2023/12/05 08:44:08;;;;;;;1.30;1.20;;;16.40;58.10;17.20;99239.00;;;;5048454;28;20534;-43
2023/12/05 08:46:35;;;;;;;1.33;1.30;;;16.40;58.60;17.20;99241.00;;;;5047443;28;20191;-43
2023/12/05 08:49:00;;;;;;;1.50;1.40;;;16.30;58.60;17.20;99246.00;;;;5047917;28;20700;-44
2023/12/05 08:51:26;;;;;;;1.33;1.23;;;16.40;58.70;17.20;99236.00;;;;5048691;28;20185;-43
2023/12/05 08:53:52;;;;;;;1.20;1.20;;;16.40;58.70;17.20;99245.00;;;;5048607;28;20217;-42
2023/12/05 08:56:18;;;;;;;1.10;1.10;;;16.50;58.80;17.30;99249.00;;;;5047469;28;20238;-44
2023/12/05 08:58:44;;;;;;;1.13;1.10;;;16.50;58.80;17.30;99248.00;;;;5048687;28;20190;-44
2023/12/05 09:01:11;;;;;;;1.20;1.20;;;16.50;58.60;17.30;99254.00;;;;5048722;28;20315;-43
2023/12/05 09:03:36;;;;;;;1.50;1.40;;;16.50;58.60;17.30;99250.00;;;;5044570;28;20181;-45
2023/12/05 09:06:02;;;;;;;1.30;1.20;;;16.50;58.60;17.30;99251.00;;;;5048315;28;20221;-43
2023/12/05 09:08:29;;;;;;;1.13;1.13;;;16.40;58.50;17.30;99252.00;;;;5048642;28;20182;-43
2023/12/05 09:10:57;;;;;;;1.27;1.20;;;16.40;58.50;17.30;99230.00;;;;5048748;28;20189;-44
2023/12/05 09:13:25;;;;;;;1.43;1.37;;;16.40;58.50;17.30;99248.00;;;;5027632;28;20205;-44
2023/12/05 09:15:51;;;;;;;1.13;1.13;;;16.40;58.50;17.30;99266.00;;;;5060635;28;20214;-43
2023/12/05 09:18:17;;;;;;;1.27;1.20;;;16.40;58.50;17.30;99250.00;;;;5048559;28;20375;-44
2023/12/05 09:20:42;;;;;;;1.43;1.33;;;16.40;58.50;17.30;99261.00;;;;5048484;28;20253;-45
2023/12/05 09:23:08;;;;;;;1.20;1.17;;;16.40;58.60;17.30;99262.00;;;;5048431;28;20185;-44
2023/12/05 09:25:34;;;;;;;1.50;1.27;;;16.40;58.70;17.30;99260.00;;;;5048815;28;20194;-45
2023/12/05 09:27:59;;;;;;;1.60;1.50;;;16.40;58.50;17.30;99271.00;;;;5046745;28;20538;-44
2023/12/05 09:30:26;;;;;;;1.17;1.17;;;16.40;58.60;17.30;99265.00;;;;5048943;28;20173;-44
2023/12/05 09:32:52;;;;;;;1.50;1.40;;;16.40;58.60;17.30;99270.00;;;;5048388;28;20173;-45
2023/12/05 09:35:17;;;;;;;1.27;1.23;;;16.50;58.60;17.30;99272.00;;;;5048071;28;20207;-45
2023/12/05 09:37:43;;;;;;;1.27;1.27;;;16.50;58.60;17.30;99276.00;;;;5048085;28;20199;-44
2023/12/05 09:40:10;;;;;;;1.50;1.30;;;16.50;58.60;17.30;99278.00;;;;5048041;28;20227;-45
2023/12/05 09:42:36;;;;;;;1.20;1.20;;;16.50;58.50;17.30;99282.00;;;;5048292;28;20170;-43
2023/12/05 09:45:06;;;;;;;1.67;1.23;;;16.50;58.60;17.30;99274.00;;;;5048712;28;20197;-43
2023/12/05 09:47:32;;;;;;;1.97;1.37;;;16.50;58.80;17.30;99281.00;;;;5050730;28;20176;-43
2023/12/05 09:49:58;;;;;;;1.50;1.20;;;16.50;59.10;17.30;99271.00;;;;5051731;28;20577;-43
2023/12/05 09:52:24;;;;;;;1.37;1.30;;;16.50;59.20;17.30;99281.00;;;;5050676;28;20173;-43
2023/12/05 09:54:49;;;;;;;1.70;1.20;;;16.50;59.20;17.40;99286.00;;;;5032286;28;20228;-43
2023/12/05 09:57:15;;;;;;;1.43;1.30;;;16.50;59.30;17.40;99288.00;;;;5017235;28;20267;-44
2023/12/05 09:59:41;;;;;;;1.50;1.40;;;16.60;59.30;17.40;99286.00;;;;5052143;28;20532;-44
2023/12/05 10:02:07;;;;;;;1.57;1.47;;;16.50;59.10;17.40;99289.00;;;;5052098;28;20189;-43
2023/12/05 10:04:43;;;;;;;1.40;1.30;;;16.50;59.20;17.40;99288.00;;;;5026197;28;20208;-43
2023/12/05 10:07:12;;;;;;;1.33;1.23;;;16.50;59.40;17.40;99299.00;;;;5050351;28;20662;-44
2023/12/05 10:09:40;;;;;;;1.40;1.30;;;16.40;59.60;17.40;99290.00;;;;5050993;28;20207;-45
2023/12/05 10:12:08;;;;;;;1.40;1.37;;;16.40;59.70;17.10;99289.00;;;;5052032;28;20204;-44
2023/12/05 10:14:34;;;;;;;1.20;1.10;;;16.40;59.90;17.40;99296.00;;;;5052022;28;20213;-44
2023/12/05 10:17:00;;;;;;;1.20;1.10;;;16.40;60.20;17.40;99293.00;;;;5051135;28;20708;-44
2023/12/05 10:19:26;;;;;;;1.23;1.17;;;16.40;60.40;17.40;99288.00;;;;5050768;28;20172;-44
2023/12/05 10:21:52;;;;;;;1.43;1.33;;;16.40;60.60;17.40;99294.00;;;;5051662;28;20180;-44
2023/12/05 10:24:18;;;;;;;1.53;1.33;;;16.40;60.90;17.40;99296.00;;;;5033559;28;20231;-44
2023/12/05 10:26:45;;;;;;;1.23;1.23;;;16.40;61.10;17.40;99295.00;;;;5051165;28;20272;-45
2023/12/05 10:29:11;;;;;;;1.93;1.40;;;16.40;61.30;17.40;99299.00;;;;5051341;28;20551;-44
2023/12/05 10:31:37;;;;;;;1.83;1.43;;;16.50;61.80;17.40;99297.00;;;;5051470;28;20176;-44
2023/12/05 10:34:04;;;;;;;1.37;1.27;;;16.40;61.70;17.40;99296.00;;;;5045749;28;20708;-44
2023/12/05 10:36:30;;;;;;;1.93;1.40;;;16.50;61.50;17.40;99304.00;;;;5051484;28;20176;-44
2023/12/05 10:38:56;;;;;;;1.53;1.30;;;16.50;61.80;17.40;99298.00;;;;5051359;28;20789;-44
2023/12/05 10:41:22;;;;;;;1.83;1.50;;;16.50;61.80;17.50;99298.00;;;;5051097;28;20193;-44
2023/12/05 10:43:49;;;;;;;1.33;1.27;;;16.50;61.70;17.50;99298.00;;;;5051105;28;20257;-44
2023/12/05 10:46:15;;;;;;;1.93;1.30;;;16.50;61.70;17.40;99295.00;;;;5050681;28;20176;-44
2023/12/05 10:48:41;;;;;;;2.00;1.33;;;16.50;61.50;17.50;99299.00;;;;5050977;28;20207;-43
2023/12/05 10:51:06;;;;;;;1.50;1.40;;;16.50;61.50;17.40;99299.00;;;;5051268;28;20204;-43